createdAt,value
2024-02-12T00:00:20.072Z,95151.94
2024-02-12T00:02:48.116Z,95154.56
2024-02-12T00:05:15.378Z,95149.84
2024-02-12T00:07:44.023Z,95155.38
2024-02-12T00:10:14.114Z,95150.09
2024-02-12T00:12:41.889Z,95148.00
2024-02-12T00:15:12.906Z,95148.81
2024-02-12T00:17:41.555Z,95146.72
2024-02-12T00:20:12.415Z,95139.59
2024-02-12T00:22:42.406Z,95150.91
2024-02-12T00:25:12.378Z,95153.53
2024-02-12T00:27:39.490Z,95152.50
2024-02-12T00:30:09.285Z,95160.13
2024-02-12T00:32:37.894Z,95161.16
2024-02-12T00:35:06.119Z,95150.66
2024-02-12T00:37:36.252Z,95160.66
2024-02-12T00:40:10.778Z,95151.97
2024-02-12T00:42:37.775Z,95152.78
2024-02-12T00:45:04.670Z,95156.97
2024-02-12T00:47:31.441Z,95148.84
2024-02-12T00:49:58.183Z,95149.88
2024-02-12T00:52:24.788Z,95161.19
2024-02-12T00:54:53.629Z,95157.50
2024-02-12T00:57:22.005Z,95154.63
2024-02-12T00:59:48.588Z,95160.94
2024-02-12T01:02:15.256Z,95153.03
2024-02-12T01:04:41.877Z,95151.72
2024-02-12T01:07:10.315Z,95159.63
2024-02-12T01:09:36.794Z,95153.84
2024-02-12T01:12:04.763Z,95149.63
2024-02-12T01:14:31.294Z,95153.84
2024-02-12T01:16:57.994Z,95152.53
2024-02-12T01:19:24.728Z,95158.81
2024-02-12T01:21:51.384Z,95161.47
2024-02-12T01:24:18.254Z,95154.63
2024-02-12T01:26:45.371Z,95162.25
2024-02-12T01:29:12.320Z,95161.47
2024-02-12T01:31:39.332Z,95168.56
2024-02-12T01:34:06.094Z,95163.81
2024-02-12T01:36:34.053Z,95166.47
2024-02-12T01:39:00.837Z,95166.47
2024-02-12T01:41:27.440Z,95166.47
2024-02-12T01:43:53.999Z,95167.50
2024-02-12T01:46:23.441Z,95165.41
2024-02-12T01:48:50.341Z,95168.28
2024-02-12T01:51:17.602Z,95176.97
2024-02-12T01:53:45.882Z,95169.88
2024-02-12T01:56:12.794Z,95166.19
2024-02-12T01:58:42.058Z,95168.56
2024-02-12T02:01:14.385Z,95163.28
2024-02-12T02:03:42.004Z,95158.81
2024-02-12T02:06:08.823Z,95164.34
2024-02-12T02:08:40.405Z,95167.75
2024-02-12T02:11:08.269Z,95168.56
2024-02-12T02:13:35.897Z,95168.81
2024-02-12T02:16:02.797Z,95172.22
2024-02-12T02:18:32.788Z,95176.69
2024-02-12T02:20:59.397Z,95169.88
2024-02-12T02:23:26.895Z,95170.91
2024-02-12T02:25:53.545Z,95169.88
2024-02-12T02:28:23.236Z,95169.88
2024-02-12T02:30:49.908Z,95161.19
2024-02-12T02:33:18.080Z,95168.28
2024-02-12T02:35:45.954Z,95160.91
2024-02-12T02:38:13.372Z,95164.34
2024-02-12T02:40:40.234Z,95161.97
2024-02-12T02:43:07.513Z,95160.38
2024-02-12T02:45:35.201Z,95166.44
2024-02-12T02:48:03.932Z,95168.28
2024-02-12T02:50:33.445Z,95165.63
2024-02-12T02:53:01.074Z,95171.69
2024-02-12T02:55:28.478Z,95173.78
2024-02-12T02:58:03.417Z,95168.78
2024-02-12T03:00:31.460Z,95173.00
2024-02-12T03:03:01.903Z,95171.94
2024-02-12T03:05:28.732Z,95170.38
2024-02-12T03:07:55.964Z,95172.72
2024-02-12T03:10:22.642Z,95177.47
2024-02-12T03:12:49.530Z,95182.72
2024-02-12T03:15:16.819Z,95180.09
2024-02-12T03:17:45.415Z,95176.66
2024-02-12T03:20:13.420Z,95180.63
2024-02-12T03:22:41.389Z,95183.25
2024-02-12T03:25:09.791Z,95179.03
2024-02-12T03:27:36.800Z,95185.88
2024-02-12T03:30:06.292Z,95185.88
2024-02-12T03:32:33.137Z,95188.25
2024-02-12T03:35:00.568Z,95196.38
2024-02-12T03:37:28.174Z,95192.19
2024-02-12T03:39:54.740Z,95193.75
2024-02-12T03:42:27.250Z,95192.72
2024-02-12T03:44:54.984Z,95194.56
2024-02-12T03:47:39.653Z,95200.84
2024-02-12T03:50:26.707Z,95206.91
2024-02-12T03:53:11.987Z,95201.91
2024-02-12T03:55:57.000Z,95207.94
2024-02-12T03:58:42.090Z,95212.16
2024-02-12T04:01:08.715Z,95218.47
2024-02-12T04:03:35.368Z,95206.66
2024-02-12T04:06:05.393Z,95215.59
2024-02-12T04:08:33.303Z,95206.66
2024-02-12T04:10:59.917Z,95217.16
2024-02-12T04:13:27.892Z,95215.31
2024-02-12T04:15:56.062Z,95220.56
2024-02-12T04:18:22.641Z,95224.00
2024-02-12T04:20:50.302Z,95232.13
2024-02-12T04:23:17.305Z,95236.34
2024-02-12T04:25:43.866Z,95234.25
2024-02-12T04:28:12.467Z,95238.97
2024-02-12T04:30:38.978Z,95241.34
2024-02-12T04:33:05.518Z,95234.50
2024-02-12T04:35:32.169Z,95240.56
2024-02-12T04:37:58.922Z,95237.13
2024-02-12T04:40:25.742Z,95238.22
2024-02-12T04:42:55.343Z,95240.31
2024-02-12T04:45:23.907Z,95241.34
2024-02-12T04:47:52.133Z,95244.78
2024-02-12T04:50:19.240Z,95243.97
2024-02-12T04:52:46.206Z,95250.81
2024-02-12T04:55:12.904Z,95247.41
2024-02-12T04:57:39.950Z,95254.50
2024-02-12T05:00:11.555Z,95254.75
2024-02-12T05:02:44.099Z,95255.81
2024-02-12T05:05:12.887Z,95255.81
2024-02-12T05:07:39.639Z,95255.81
2024-02-12T05:10:07.546Z,95261.34
2024-02-12T05:12:34.037Z,95265.00
2024-02-12T05:15:00.707Z,95259.22
2024-02-12T05:17:43.225Z,95264.50
2024-02-12T05:20:28.982Z,95274.22
2024-02-12T05:22:55.656Z,95269.47
2024-02-12T05:25:22.260Z,95268.16
2024-02-12T05:27:48.718Z,95276.56
2024-02-12T05:30:15.393Z,95278.16
2024-02-12T05:32:41.971Z,95275.78
2024-02-12T05:35:11.054Z,95284.75
2024-02-12T05:37:37.737Z,95279.47
2024-02-12T05:40:08.641Z,95287.38
2024-02-12T05:42:35.430Z,95283.16
2024-02-12T05:45:01.927Z,95286.03
2024-02-12T05:47:28.691Z,95291.31
2024-02-12T05:49:56.153Z,95290.25
2024-02-12T05:52:22.833Z,95291.03
2024-02-12T05:54:49.361Z,95286.56
2024-02-12T05:57:15.924Z,95293.13
2024-02-12T05:59:42.535Z,95297.34
2024-02-12T06:02:09.099Z,95301.56
2024-02-12T06:04:35.769Z,95298.69
2024-02-12T06:07:02.964Z,95301.56
2024-02-12T06:09:30.310Z,95302.59
2024-02-12T06:11:57.287Z,95308.13
2024-02-12T06:14:23.886Z,95308.41
2024-02-12T06:16:50.725Z,95315.50
2024-02-12T06:19:17.391Z,95308.41
2024-02-12T06:21:46.156Z,95316.78
2024-02-12T06:24:12.861Z,95325.22
2024-02-12T06:26:39.858Z,95319.97
2024-02-12T06:29:06.469Z,95328.38
2024-02-12T06:31:33.127Z,95331.00
2024-02-12T06:33:59.956Z,95335.22
2024-02-12T06:36:26.601Z,95338.66
2024-02-12T06:38:53.189Z,95337.06
2024-02-12T06:41:21.750Z,95339.69
2024-02-12T06:43:48.293Z,95348.13
2024-02-12T06:46:14.889Z,95352.31
2024-02-12T06:48:42.241Z,95350.50
2024-02-12T06:51:12.487Z,95354.97
2024-02-12T06:53:39.025Z,95360.75
2024-02-12T06:56:06.149Z,95361.53
2024-02-12T06:58:32.893Z,95363.13
2024-02-12T07:00:59.507Z,95362.09
2024-02-12T07:03:26.063Z,95369.97
2024-02-12T07:05:52.898Z,95374.97
2024-02-12T07:08:21.050Z,95378.41
2024-02-12T07:10:48.696Z,95374.97
2024-02-12T07:13:16.564Z,95378.41
2024-02-12T07:15:43.937Z,95374.72
2024-02-12T07:18:10.539Z,95383.38
2024-02-12T07:20:37.541Z,95382.31
2024-02-12T07:23:04.667Z,95382.31
2024-02-12T07:25:31.994Z,95391.78
2024-02-12T07:27:58.778Z,95392.59
2024-02-12T07:30:25.634Z,95395.22
2024-02-12T07:32:52.254Z,95394.19
2024-02-12T07:35:18.818Z,95395.75
2024-02-12T07:37:45.411Z,95403.41
2024-02-12T07:40:12.484Z,95400.75
2024-02-12T07:42:40.251Z,95400.50
2024-02-12T07:45:14.617Z,95403.94
2024-02-12T07:47:43.108Z,95403.69
2024-02-12T07:50:10.896Z,95411.84
2024-02-12T07:52:39.055Z,95416.31
2024-02-12T07:55:06.240Z,95418.69
2024-02-12T07:57:32.806Z,95421.31
2024-02-12T07:59:59.365Z,95422.91
2024-02-12T08:02:26.001Z,95421.31
2024-02-12T08:04:53.083Z,95430.53
2024-02-12T08:07:22.605Z,95426.88
2024-02-12T08:09:51.600Z,95424.50
2024-02-12T08:12:19.608Z,95433.72
2024-02-12T08:14:46.373Z,95432.41
2024-02-12T08:17:13.100Z,95424.78
2024-02-12T08:19:55.201Z,95436.38
2024-02-12T08:22:25.003Z,95446.09
2024-02-12T08:24:52.385Z,95440.34
2024-02-12T08:27:21.253Z,95441.94
2024-02-12T08:29:49.081Z,95453.78
2024-02-12T08:32:15.773Z,95447.72
2024-02-12T08:34:42.838Z,95457.19
2024-02-12T08:37:12.804Z,95465.59
2024-02-12T08:39:40.149Z,95472.19
2024-02-12T08:42:06.746Z,95465.09
2024-02-12T08:44:33.440Z,95465.09
2024-02-12T08:47:03.033Z,95465.63
2024-02-12T08:49:29.693Z,95471.97
2024-02-12T08:51:57.604Z,95469.88
2024-02-12T08:54:24.204Z,95472.00
2024-02-12T08:56:50.815Z,95477.00
2024-02-12T08:59:20.418Z,95476.75
2024-02-12T09:01:47.227Z,95481.00
2024-02-12T09:04:13.795Z,95485.47
2024-02-12T09:06:40.841Z,95476.81
2024-02-12T09:09:07.654Z,95478.13
2024-02-12T09:11:34.275Z,95478.13
2024-02-12T09:14:01.851Z,95484.69
2024-02-12T09:16:28.405Z,95483.41
2024-02-12T09:18:55.567Z,95484.50
2024-02-12T09:21:22.182Z,95490.31
2024-02-12T09:23:48.708Z,95498.22
2024-02-12T09:26:18.150Z,95497.44
2024-02-12T09:28:44.712Z,95500.88
2024-02-12T09:31:11.221Z,95498.78
2024-02-12T09:33:38.045Z,95503.53
2024-02-12T09:36:05.245Z,95492.22
2024-02-12T09:38:31.887Z,95505.13
2024-02-12T09:40:59.095Z,95510.41
2024-02-12T09:43:27.026Z,95507.75
2024-02-12T09:45:55.952Z,95508.56
2024-02-12T09:48:22.927Z,95511.97
2024-02-12T09:50:51.770Z,95522.50
2024-02-12T09:53:22.246Z,95517.50
2024-02-12T09:55:49.108Z,95516.72
2024-02-12T09:58:22.256Z,95523.84
2024-02-12T10:00:49.358Z,95525.69
2024-02-12T10:03:16.095Z,95522.78
2024-02-12T10:05:44.975Z,95523.31
2024-02-12T10:08:22.214Z,95526.47
2024-02-12T10:10:50.003Z,95534.38
2024-02-12T10:13:17.782Z,95539.38
2024-02-12T10:15:45.810Z,95537.53
2024-02-12T10:18:15.654Z,95544.41
2024-02-12T10:20:42.349Z,95537.53
2024-02-12T10:23:12.168Z,95541.22
2024-02-12T10:25:42.845Z,95538.59
2024-02-12T10:28:09.647Z,95543.59
2024-02-12T10:30:36.850Z,95547.28
2024-02-12T10:33:08.331Z,95544.41
2024-02-12T10:35:42.352Z,95545.19
2024-02-12T10:38:12.198Z,95544.13
2024-02-12T10:40:56.859Z,95542.28
2024-02-12T10:43:25.098Z,95551.81
2024-02-12T10:45:54.463Z,95546.28
2024-02-12T10:48:22.477Z,95548.41
2024-02-12T10:50:49.978Z,95541.28
2024-02-12T10:53:20.319Z,95540.25
2024-02-12T10:55:47.682Z,95539.22
2024-02-12T10:58:15.249Z,95538.16
2024-02-12T11:00:49.450Z,95536.84
2024-02-12T11:03:35.878Z,95542.91
2024-02-12T11:06:04.200Z,95541.88
2024-02-12T11:08:30.936Z,95548.72
2024-02-12T11:11:01.627Z,95551.84
2024-02-12T11:13:40.054Z,95563.47
2024-02-12T11:16:13.618Z,95559.00
2024-02-12T11:18:40.554Z,95554.78
2024-02-12T11:21:09.568Z,95559.00
2024-02-12T11:23:36.595Z,95561.34
2024-02-12T11:26:07.099Z,95563.72
2024-02-12T11:28:33.802Z,95567.94
2024-02-12T11:31:00.401Z,95564.25
2024-02-12T11:33:27.970Z,95564.00
2024-02-12T11:36:06.873Z,95577.19
2024-02-12T11:38:34.012Z,95562.97
2024-02-12T11:41:06.453Z,95569.81
2024-02-12T11:43:34.526Z,95582.19
2024-02-12T11:46:04.114Z,95583.78
2024-02-12T11:48:31.371Z,95590.63
2024-02-12T11:50:58.243Z,95587.50
2024-02-12T11:53:26.345Z,95586.69
2024-02-12T11:55:53.630Z,95587.50
2024-02-12T11:58:20.491Z,95591.97
2024-02-12T12:00:47.344Z,95589.88
2024-02-12T12:03:14.031Z,95580.63
2024-02-12T12:05:42.828Z,95584.84
2024-02-12T12:08:11.394Z,95585.91
2024-02-12T12:10:38.086Z,95583.03
2024-02-12T12:13:05.044Z,95598.84
2024-02-12T12:15:32.623Z,95599.91
2024-02-12T12:18:00.311Z,95594.63
2024-02-12T12:20:32.357Z,95598.06
2024-02-12T12:23:01.855Z,95601.50
2024-02-12T12:25:28.566Z,95589.66
2024-02-12T12:27:56.227Z,95595.72
2024-02-12T12:30:23.669Z,95598.09
2024-02-12T12:32:52.637Z,95599.66
2024-02-12T12:35:20.305Z,95598.38
2024-02-12T12:37:47.075Z,95604.13
2024-02-12T12:40:20.232Z,95600.19
2024-02-12T12:42:50.919Z,95596.50
2024-02-12T12:45:18.655Z,95597.28
2024-02-12T12:47:46.631Z,95598.09
2024-02-12T12:50:16.668Z,95587.81
2024-02-12T12:52:44.241Z,95603.38
2024-02-12T12:55:15.517Z,95593.88
2024-02-12T12:57:44.129Z,95606.78
2024-02-12T13:00:20.186Z,95598.09
2024-02-12T13:02:47.744Z,95596.50
2024-02-12T13:05:14.997Z,95595.44
2024-02-12T13:08:15.835Z,95612.84
2024-02-12T13:12:59.695Z,95611.53
2024-02-12T13:15:27.272Z,95613.13
2024-02-12T13:17:54.452Z,95611.25
2024-02-12T13:20:25.681Z,95613.38
2024-02-12T13:22:58.676Z,95611.53
2024-02-12T13:25:33.153Z,95616.81
2024-02-12T13:28:00.994Z,95626.56
2024-02-12T13:30:33.832Z,95617.34
2024-02-12T13:33:11.017Z,95619.97
2024-02-12T13:35:39.842Z,95616.53
2024-02-12T13:38:12.987Z,95618.66
2024-02-12T13:40:40.818Z,95618.94
2024-02-12T13:43:10.129Z,95622.63
2024-02-12T13:45:40.172Z,95627.13
2024-02-12T13:48:09.534Z,95631.88
2024-02-12T13:50:36.366Z,95620.53
2024-02-12T13:53:07.386Z,95629.50
2024-02-12T13:55:34.777Z,95634.50
2024-02-12T13:58:01.420Z,95632.66
2024-02-12T14:00:46.762Z,95631.59
2024-02-12T14:03:15.104Z,95641.63
2024-02-12T14:05:43.243Z,95632.66
2024-02-12T14:08:11.593Z,95631.06
2024-02-12T14:10:38.805Z,95639.78
2024-02-12T14:13:05.405Z,95642.94
2024-02-12T14:16:03.273Z,95642.16
2024-02-12T14:18:18.931Z,95650.88
2024-02-12T14:20:45.722Z,95658.25
2024-02-12T14:23:12.435Z,95656.16
2024-02-12T14:25:39.999Z,95669.91
2024-02-12T14:28:07.421Z,95664.09
2024-02-12T14:30:35.456Z,95665.94
2024-02-12T14:33:03.910Z,95666.44
2024-02-12T14:35:36.215Z,95669.09
2024-02-12T14:38:03.470Z,95673.59
2024-02-12T14:40:30.425Z,95682.28
2024-02-12T14:42:57.210Z,95682.56
2024-02-12T14:45:30.286Z,95680.44
2024-02-12T14:48:07.078Z,95687.56
2024-02-12T14:50:34.904Z,95691.53
2024-02-12T14:53:02.533Z,95694.97
2024-02-12T14:55:29.169Z,95703.66
2024-02-12T14:57:56.112Z,95699.97
2024-02-12T15:00:25.406Z,95707.34
2024-02-12T15:02:54.425Z,95715.78
2024-02-12T15:05:21.401Z,95708.94
2024-02-12T15:07:53.505Z,95717.66
2024-02-12T15:10:22.833Z,95717.91
2024-02-12T15:12:50.276Z,95718.44
2024-02-12T15:15:20.078Z,95715.56
2024-02-12T15:17:53.421Z,95723.78
2024-02-12T15:20:23.601Z,95723.78
2024-02-12T15:22:51.734Z,95723.25
2024-02-12T15:25:20.997Z,95731.44
2024-02-12T15:27:49.104Z,95728.00
2024-02-12T15:30:16.768Z,95740.66
2024-02-12T15:32:43.732Z,95741.47
2024-02-12T15:35:16.083Z,95740.41
2024-02-12T15:37:44.836Z,95747.25
2024-02-12T15:40:12.815Z,95745.13
2024-02-12T15:42:43.559Z,95751.75
2024-02-12T15:45:11.537Z,95752.78
2024-02-12T15:47:40.757Z,95759.63
2024-02-12T15:50:12.363Z,95757.00
2024-02-12T15:52:42.294Z,95760.94
2024-02-12T15:55:12.785Z,95763.84
2024-02-12T15:57:43.732Z,95775.97
2024-02-12T16:00:15.891Z,95774.91
2024-02-12T16:02:44.507Z,95774.13
2024-02-12T16:05:53.380Z,95783.59
2024-02-12T16:08:20.858Z,95792.31
2024-02-12T16:10:47.814Z,95793.34
2024-02-12T16:13:14.444Z,95800.22
2024-02-12T16:15:41.174Z,95812.06
2024-02-12T16:18:09.544Z,95823.41
2024-02-12T16:20:36.658Z,95823.09
2024-02-12T16:23:03.987Z,95824.91
2024-02-12T16:25:31.873Z,95834.19
2024-02-12T16:27:59.634Z,95837.09
2024-02-12T16:30:27.081Z,95845.00
2024-02-12T16:32:55.340Z,95847.09
2024-02-12T16:35:22.197Z,95853.16
2024-02-12T16:37:48.755Z,95854.97
2024-02-12T16:40:15.366Z,95868.41
2024-02-12T16:42:43.508Z,95866.53
2024-02-12T16:45:10.835Z,95862.56
2024-02-12T16:47:41.204Z,95871.28
2024-02-12T16:50:09.206Z,95879.19
2024-02-12T16:52:36.729Z,95886.53
2024-02-12T16:55:04.677Z,95887.06
2024-02-12T16:57:33.037Z,95884.66
2024-02-12T16:59:59.825Z,95896.00
2024-02-12T17:02:29.232Z,95902.59
2024-02-12T17:04:56.034Z,95909.19
2024-02-12T17:07:25.017Z,95899.13
2024-02-12T17:09:51.548Z,95907.28
2024-02-12T17:12:20.242Z,95911.47
2024-02-12T17:14:47.350Z,95914.38
2024-02-12T17:17:15.180Z,95916.19
2024-02-12T17:19:42.623Z,95910.38
2024-02-12T17:22:10.967Z,95922.53
2024-02-12T17:24:37.677Z,95926.94
2024-02-12T17:27:05.052Z,95926.94
2024-02-12T17:29:31.766Z,95928.00
2024-02-12T17:31:58.782Z,95932.47
2024-02-12T17:34:26.724Z,95936.94
2024-02-12T17:36:53.541Z,95942.97
2024-02-12T17:39:20.435Z,95949.53
2024-02-12T17:41:47.403Z,95950.06
2024-02-12T17:44:15.003Z,95948.47
2024-02-12T17:46:42.130Z,95958.69
2024-02-12T17:49:08.940Z,95956.00
2024-02-12T17:51:35.536Z,95965.22
2024-02-12T17:54:02.101Z,95970.72
2024-02-12T17:56:28.677Z,95973.06
2024-02-12T17:58:58.047Z,95980.72
2024-02-12T18:01:28.196Z,95980.72
2024-02-12T18:03:54.880Z,95985.69
2024-02-12T18:06:22.922Z,95996.22
2024-02-12T18:08:50.485Z,95996.22
2024-02-12T18:11:17.204Z,96000.94
2024-02-12T18:13:44.241Z,95998.28
2024-02-12T18:16:10.952Z,95999.34
2024-02-12T18:18:37.721Z,96009.88
2024-02-12T18:21:04.977Z,96006.69
2024-02-12T18:23:31.701Z,96016.19
2024-02-12T18:26:00.725Z,96014.84
2024-02-12T18:28:27.523Z,96015.88
2024-02-12T18:30:54.092Z,96019.28
2024-02-12T18:33:20.775Z,96019.53
2024-02-12T18:35:48.222Z,96025.81
2024-02-12T18:38:14.985Z,96030.22
2024-02-12T18:40:41.969Z,96042.28
2024-02-12T18:43:08.531Z,96035.69
2024-02-12T18:45:35.236Z,96040.63
2024-02-12T18:48:02.687Z,96044.06
2024-02-12T18:50:30.129Z,96038.47
2024-02-12T18:52:56.892Z,96045.34
2024-02-12T18:55:23.486Z,96050.28
2024-02-12T18:57:50.229Z,96058.75
2024-02-12T19:00:17.448Z,96067.94
2024-02-12T19:02:45.345Z,96065.28
2024-02-12T19:05:12.321Z,96073.69
2024-02-12T19:07:40.545Z,96079.41
2024-02-12T19:10:12.576Z,96079.91
2024-02-12T19:12:42.765Z,96081.19
2024-02-12T19:15:15.457Z,96078.78
2024-02-12T19:17:43.182Z,96081.66
2024-02-12T19:20:12.257Z,96091.97
2024-02-12T19:22:40.042Z,96093.00
2024-02-12T19:25:07.304Z,96090.03
2024-02-12T19:27:39.767Z,96096.91
2024-02-12T19:30:11.144Z,96101.38
2024-02-12T19:32:39.567Z,96099.22
2024-02-12T19:35:11.409Z,96110.78
2024-02-12T19:37:41.351Z,96106.56
2024-02-12T19:40:15.302Z,96113.09
2024-02-12T19:42:45.646Z,96114.44
2024-02-12T19:45:13.119Z,96124.97
2024-02-12T19:47:40.646Z,96126.00
2024-02-12T19:50:08.475Z,96133.66
2024-02-12T19:52:35.092Z,96138.63
2024-02-12T19:55:01.608Z,96143.63
2024-02-12T19:57:30.924Z,96150.19
2024-02-12T19:59:58.274Z,96153.06
2024-02-12T20:02:24.974Z,96148.59
2024-02-12T20:04:51.639Z,96154.88
2024-02-12T20:07:18.357Z,96157.28
2024-02-12T20:09:44.827Z,96153.06
2024-02-12T20:12:11.618Z,96155.91
2024-02-12T20:14:38.426Z,96166.44
2024-02-12T20:17:07.160Z,96166.69
2024-02-12T20:19:34.636Z,96174.00
2024-02-12T20:22:01.467Z,96172.75
2024-02-12T20:24:28.401Z,96183.34
2024-02-12T20:26:54.974Z,96180.00
2024-02-12T20:29:21.566Z,96190.31
2024-02-12T20:31:48.254Z,96190.06
2024-02-12T20:34:14.945Z,96196.94
2024-02-12T20:36:42.440Z,96199.22
2024-02-12T20:39:10.953Z,96198.69
2024-02-12T20:41:38.927Z,96206.00
2024-02-12T20:44:06.585Z,96206.47
2024-02-12T20:46:33.335Z,96213.03
2024-02-12T20:49:00.809Z,96213.72
2024-02-12T20:51:27.584Z,96220.25
2024-02-12T20:53:54.317Z,96229.91
2024-02-12T20:56:20.877Z,96228.78
2024-02-12T20:58:47.516Z,96233.72
2024-02-12T21:01:15.949Z,96236.25
2024-02-12T21:03:42.667Z,96254.91
2024-02-12T21:06:10.139Z,96244.84
2024-02-12T21:08:37.679Z,96250.47
2024-02-12T21:11:04.674Z,96249.44
2024-02-12T21:13:36.854Z,96256.31
2024-02-12T21:16:06.564Z,96258.13
2024-02-12T21:18:33.639Z,96264.66
2024-02-12T21:21:00.804Z,96261.47
2024-02-12T21:23:29.889Z,96271.44
2024-02-12T21:25:56.787Z,96260.66
2024-02-12T21:28:24.871Z,96273.59
2024-02-12T21:30:51.610Z,96270.66
2024-02-12T21:33:18.496Z,96281.63
2024-02-12T21:35:48.918Z,96280.03
2024-02-12T21:38:15.640Z,96286.31
2024-02-12T21:40:44.738Z,96280.50
2024-02-12T21:43:11.269Z,96287.81
2024-02-12T21:45:37.779Z,96291.72
2024-02-12T21:48:05.176Z,96287.72
2024-02-12T21:50:37.581Z,96294.78
2024-02-12T21:53:04.523Z,96301.66
2024-02-12T21:55:31.049Z,96308.06
2024-02-12T21:57:59.130Z,96306.13
2024-02-12T22:00:25.664Z,96305.88
2024-02-12T22:02:52.964Z,96308.97
2024-02-12T22:05:21.086Z,96311.16
2024-02-12T22:07:47.778Z,96314.47
2024-02-12T22:10:14.349Z,96323.59
2024-02-12T22:12:43.451Z,96323.84
2024-02-12T22:15:11.038Z,96325.22
2024-02-12T22:17:40.272Z,96325.91
2024-02-12T22:20:07.244Z,96331.63
2024-02-12T22:22:33.757Z,96336.19
2024-02-12T22:25:00.297Z,96339.03
2024-02-12T22:27:26.818Z,96339.16
2024-02-12T22:29:53.585Z,96349.66
2024-02-12T22:32:20.253Z,96351.50
2024-02-12T22:34:47.385Z,96360.75
2024-02-12T22:37:14.808Z,96357.69
2024-02-12T22:39:41.698Z,96365.22
2024-02-12T22:42:11.232Z,96363.16
2024-02-12T22:44:38.175Z,96372.06
2024-02-12T22:47:05.006Z,96380.75
2024-02-12T22:49:31.798Z,96375.84
2024-02-12T22:51:59.497Z,96374.25
2024-02-12T22:54:26.095Z,96381.91
2024-02-12T22:56:52.614Z,96383.75
2024-02-12T22:59:19.536Z,96387.16
2024-02-12T23:01:46.140Z,96393.69
2024-02-12T23:04:13.012Z,96391.28
2024-02-12T23:06:39.629Z,96403.97
2024-02-12T23:09:07.716Z,96401.00
2024-02-12T23:11:34.414Z,96404.88
2024-02-12T23:14:00.957Z,96418.59
2024-02-12T23:16:27.537Z,96418.25
2024-02-12T23:18:54.183Z,96418.81
2024-02-12T23:21:20.880Z,96424.06
2024-02-12T23:23:48.901Z,96424.31
2024-02-12T23:26:15.536Z,96425.09
2024-02-12T23:28:42.551Z,96431.16
2024-02-12T23:31:09.085Z,96433.78
2024-02-12T23:33:36.476Z,96436.09
2024-02-12T23:36:06.723Z,96444.00
2024-02-12T23:38:36.507Z,96437.81
2024-02-12T23:41:03.517Z,96446.84
2024-02-12T23:43:30.738Z,96444.44
2024-02-12T23:45:57.300Z,96447.41
2024-02-12T23:48:24.595Z,96445.25
2024-02-12T23:50:51.367Z,96450.50
2024-02-12T23:53:18.042Z,96443.19
2024-02-12T23:55:47.072Z,96451.06
2024-02-12T23:58:13.753Z,96446.63
